createdAt,value
2018-12-18T00:01:43.797Z,21.70
2018-12-18T00:04:12.006Z,21.67
2018-12-18T00:06:40.252Z,22.17
2018-12-18T00:09:08.629Z,21.83
2018-12-18T00:11:36.946Z,20.97
2018-12-18T00:14:05.181Z,20.93
2018-12-18T00:16:33.408Z,20.27
2018-12-18T00:19:01.642Z,19.80
2018-12-18T00:21:29.883Z,20.20
2018-12-18T00:23:58.107Z,20.33
2018-12-18T00:26:26.342Z,22.53
2018-12-18T00:28:54.587Z,21.73
2018-12-18T00:31:22.962Z,19.97
2018-12-18T00:33:51.155Z,20.50
2018-12-18T00:36:19.362Z,19.50
2018-12-18T00:38:47.594Z,19.20
2018-12-18T00:41:15.811Z,20.00
2018-12-18T00:43:44.105Z,19.67
2018-12-18T00:46:12.374Z,20.20
2018-12-18T00:48:40.613Z,19.10
2018-12-18T00:51:08.829Z,19.13
2018-12-18T00:53:37.285Z,18.47
2018-12-18T00:56:05.521Z,19.57
2018-12-18T00:58:33.762Z,19.97
2018-12-18T01:01:01.963Z,18.27
2018-12-18T01:03:30.194Z,19.07
2018-12-18T01:05:58.423Z,19.40
2018-12-18T01:08:26.672Z,18.83
2018-12-18T01:10:54.886Z,19.67
2018-12-18T01:13:23.118Z,18.10
2018-12-18T01:15:51.338Z,18.37
2018-12-18T01:18:19.571Z,19.20
2018-12-18T01:20:47.873Z,18.67
2018-12-18T01:23:16.226Z,19.10
2018-12-18T01:25:44.442Z,19.33
2018-12-18T01:28:12.718Z,18.83
2018-12-18T01:30:40.981Z,20.03
2018-12-18T01:33:09.238Z,18.67
2018-12-18T01:35:37.457Z,18.07
2018-12-18T01:38:05.678Z,19.10
2018-12-18T01:40:33.907Z,18.33
2018-12-18T01:43:02.136Z,19.20
2018-12-18T01:45:30.354Z,19.10
2018-12-18T01:47:58.587Z,19.60
2018-12-18T01:50:26.799Z,19.40
2018-12-18T01:52:55.018Z,19.13
2018-12-18T01:55:23.222Z,19.37
2018-12-18T01:57:51.414Z,18.83
2018-12-18T02:00:19.665Z,18.20
2018-12-18T02:02:47.886Z,18.23
2018-12-18T02:05:16.057Z,17.83
2018-12-18T02:07:44.296Z,19.10
2018-12-18T02:10:12.463Z,18.73
2018-12-18T02:12:40.759Z,19.37
2018-12-18T02:15:09.097Z,19.60
2018-12-18T02:17:37.289Z,18.43
2018-12-18T02:20:06.934Z,19.33
2018-12-18T02:22:35.340Z,20.20
2018-12-18T02:25:04.815Z,17.97
2018-12-18T02:27:33.138Z,19.37
2018-12-18T02:30:01.548Z,19.73
2018-12-18T02:32:29.739Z,18.93
2018-12-18T02:34:57.963Z,18.70
2018-12-18T02:37:26.578Z,18.87
2018-12-18T02:39:54.999Z,18.83
2018-12-18T02:42:23.178Z,19.43
2018-12-18T02:44:51.390Z,18.73
2018-12-18T02:47:19.587Z,18.07
2018-12-18T02:49:47.802Z,18.93
2018-12-18T02:52:15.985Z,18.47
2018-12-18T02:54:44.212Z,17.60
2018-12-18T02:57:12.475Z,18.67
2018-12-18T02:59:40.851Z,18.77
2018-12-18T03:02:09.108Z,17.40
2018-12-18T03:04:37.326Z,19.30
2018-12-18T03:07:05.629Z,17.87
2018-12-18T03:09:33.988Z,17.83
2018-12-18T03:12:02.246Z,18.17
2018-12-18T03:14:30.451Z,17.87
2018-12-18T03:16:58.627Z,19.37
2018-12-18T03:19:26.830Z,18.30
2018-12-18T03:21:55.008Z,18.27
2018-12-18T03:24:23.241Z,16.10
2018-12-18T03:26:51.421Z,16.87
2018-12-18T03:29:19.636Z,18.60
2018-12-18T03:31:52.327Z,17.40
2018-12-18T03:34:20.536Z,19.47
2018-12-18T03:36:48.699Z,18.77
2018-12-18T03:39:16.922Z,16.80
2018-12-18T03:41:45.189Z,18.87
2018-12-18T03:44:13.378Z,18.47
2018-12-18T03:46:41.635Z,18.60
2018-12-18T03:49:09.817Z,19.10
2018-12-18T03:51:38.024Z,18.43
2018-12-18T03:54:06.289Z,18.60
2018-12-18T03:56:34.473Z,18.60
2018-12-18T03:59:02.757Z,19.13
2018-12-18T04:01:30.938Z,18.73
2018-12-18T04:03:59.127Z,18.97
2018-12-18T04:06:27.293Z,18.90
2018-12-18T04:08:55.573Z,20.43
2018-12-18T04:11:23.758Z,20.10
2018-12-18T04:13:51.952Z,20.07
2018-12-18T04:16:20.142Z,19.33
2018-12-18T04:18:48.335Z,20.23
2018-12-18T04:21:16.591Z,20.53
2018-12-18T04:23:44.789Z,20.27
2018-12-18T04:26:12.949Z,19.33
2018-12-18T04:28:41.159Z,19.17
2018-12-18T04:31:09.354Z,19.93
2018-12-18T04:33:37.638Z,20.00
2018-12-18T04:36:05.807Z,20.13
2018-12-18T04:38:33.993Z,20.53
2018-12-18T04:41:02.176Z,20.73
2018-12-18T04:43:30.454Z,20.00
2018-12-18T04:45:58.626Z,20.53
2018-12-18T04:48:26.871Z,20.20
2018-12-18T04:50:55.060Z,19.07
2018-12-18T04:53:23.477Z,19.40
2018-12-18T04:55:51.651Z,16.60
2018-12-18T04:58:19.966Z,19.60
2018-12-18T05:00:48.413Z,18.27
2018-12-18T05:03:16.706Z,16.77
2018-12-18T05:05:44.966Z,18.53
2018-12-18T05:08:13.131Z,19.37
2018-12-18T05:10:41.308Z,17.87
2018-12-18T05:13:09.522Z,18.73
2018-12-18T05:15:37.714Z,18.93
2018-12-18T05:18:05.960Z,18.73
2018-12-18T05:20:34.137Z,18.60
2018-12-18T05:23:02.399Z,19.43
2018-12-18T05:25:30.592Z,19.03
2018-12-18T05:27:58.860Z,19.80
2018-12-18T05:30:27.064Z,19.63
2018-12-18T05:32:55.233Z,20.07
2018-12-18T05:35:23.420Z,19.93
2018-12-18T05:37:51.599Z,19.27
2018-12-18T05:40:19.868Z,19.73
2018-12-18T05:42:48.049Z,19.80
2018-12-18T05:45:16.243Z,18.57
2018-12-18T05:47:44.437Z,18.57
2018-12-18T05:50:12.711Z,21.43
2018-12-18T05:52:40.882Z,18.00
2018-12-18T05:55:09.077Z,18.10
2018-12-18T05:57:37.249Z,18.03
2018-12-18T06:00:05.686Z,18.93
2018-12-18T06:02:33.904Z,18.93
2018-12-18T06:05:03.344Z,19.07
2018-12-18T06:07:31.770Z,18.97
2018-12-18T06:10:00.046Z,18.20
2018-12-18T06:12:28.233Z,17.97
2018-12-18T06:14:56.427Z,18.53
2018-12-18T06:17:24.593Z,23.73
2018-12-18T06:19:52.831Z,18.47
2018-12-18T06:22:21.024Z,18.67
2018-12-18T06:24:49.237Z,15.93
2018-12-18T06:27:17.425Z,16.20
2018-12-18T06:29:45.680Z,17.27
2018-12-18T06:32:13.871Z,15.77
2018-12-18T06:34:42.149Z,17.83
2018-12-18T06:37:10.333Z,16.90
2018-12-18T06:39:38.570Z,18.70
2018-12-18T06:42:06.881Z,18.10
2018-12-18T06:44:35.099Z,18.20
2018-12-18T06:47:03.419Z,18.83
2018-12-18T06:49:31.641Z,18.70
2018-12-18T06:51:59.850Z,17.60
2018-12-18T06:54:28.076Z,17.37
2018-12-18T06:56:56.339Z,19.20
2018-12-18T06:59:24.576Z,18.77
2018-12-18T07:01:52.802Z,18.07
2018-12-18T07:04:21.050Z,18.37
2018-12-18T07:06:49.359Z,18.00
2018-12-18T07:09:17.571Z,17.10
2018-12-18T07:11:45.834Z,18.70
2018-12-18T07:14:14.034Z,18.60
2018-12-18T07:16:42.236Z,18.73
2018-12-18T07:19:10.490Z,17.83
2018-12-18T07:21:38.890Z,19.40
2018-12-18T07:24:07.179Z,20.03
2018-12-18T07:26:35.364Z,18.60
2018-12-18T07:29:03.741Z,17.97
2018-12-18T07:31:31.949Z,17.80
2018-12-18T07:34:00.143Z,17.73
2018-12-18T07:36:28.338Z,18.97
2018-12-18T07:38:56.563Z,17.77
2018-12-18T07:41:24.753Z,17.77
2018-12-18T07:43:52.958Z,18.57
2018-12-18T07:46:21.162Z,19.20
2018-12-18T07:48:49.381Z,18.33
2018-12-18T07:51:17.587Z,18.00
2018-12-18T07:53:45.787Z,18.03
2018-12-18T07:56:14.003Z,17.90
2018-12-18T07:58:42.191Z,20.03
2018-12-18T08:01:10.413Z,19.10
2018-12-18T08:03:38.616Z,19.13
2018-12-18T08:06:06.987Z,21.47
2018-12-18T08:08:35.157Z,20.17
2018-12-18T08:11:03.442Z,22.30
2018-12-18T08:13:31.639Z,20.87
2018-12-18T08:15:59.865Z,19.73
2018-12-18T08:18:28.053Z,19.63
2018-12-18T08:20:56.350Z,18.57
2018-12-18T08:23:24.549Z,19.70
2018-12-18T08:25:52.768Z,18.97
2018-12-18T08:28:20.943Z,19.27
2018-12-18T08:30:49.149Z,19.33
2018-12-18T08:33:17.332Z,18.30
2018-12-18T08:35:46.010Z,20.30
2018-12-18T08:38:14.205Z,18.13
2018-12-18T08:40:42.405Z,19.17
2018-12-18T08:43:10.686Z,18.70
2018-12-18T08:45:38.892Z,17.93
2018-12-18T08:48:07.102Z,19.73
2018-12-18T08:50:35.325Z,18.70
2018-12-18T08:53:03.769Z,19.97
2018-12-18T08:55:32.048Z,17.97
2018-12-18T08:58:00.382Z,17.90
2018-12-18T09:00:28.585Z,17.03
2018-12-18T09:02:56.767Z,17.03
2018-12-18T09:05:25.145Z,17.10
2018-12-18T09:07:53.444Z,17.27
2018-12-18T09:10:21.733Z,18.73
2018-12-18T09:12:49.981Z,16.20
2018-12-18T09:15:23.651Z,17.80
2018-12-18T09:17:51.879Z,17.70
2018-12-18T09:20:20.077Z,17.17
2018-12-18T09:22:48.244Z,18.33
2018-12-18T09:25:16.476Z,18.50
2018-12-18T09:27:44.699Z,18.17
2018-12-18T09:30:12.902Z,16.63
2018-12-18T09:32:41.104Z,16.03
2018-12-18T09:35:09.318Z,15.50
2018-12-18T09:37:37.508Z,15.33
2018-12-18T09:40:07.696Z,14.90
2018-12-18T09:42:41.183Z,15.87
2018-12-18T09:45:09.459Z,14.50
2018-12-18T09:47:37.653Z,15.97
2018-12-18T09:50:06.872Z,14.43
2018-12-18T09:52:35.064Z,14.97
2018-12-18T09:55:03.449Z,15.13
2018-12-18T09:57:37.190Z,13.97
2018-12-18T10:00:07.679Z,13.83
2018-12-18T10:02:35.930Z,13.83
2018-12-18T10:05:04.462Z,14.37
2018-12-18T10:07:32.645Z,14.80
2018-12-18T10:10:00.870Z,13.33
2018-12-18T10:12:34.429Z,13.63
2018-12-18T10:15:02.630Z,13.23
2018-12-18T10:17:30.820Z,14.30
2018-12-18T10:19:59.021Z,13.17
2018-12-18T10:22:27.213Z,15.00
2018-12-18T10:24:55.442Z,12.63
2018-12-18T10:27:23.643Z,11.47
2018-12-18T10:29:52.001Z,12.07
2018-12-18T10:32:20.346Z,11.63
2018-12-18T10:34:48.517Z,11.10
2018-12-18T10:37:16.717Z,10.90
2018-12-18T10:39:44.913Z,11.63
2018-12-18T10:42:13.178Z,10.63
2018-12-18T10:44:41.475Z,10.47
2018-12-18T10:47:09.669Z,10.93
2018-12-18T10:49:37.887Z,9.63
2018-12-18T10:52:06.154Z,9.17
2018-12-18T10:54:34.479Z,9.50
2018-12-18T10:57:02.658Z,10.00
2018-12-18T10:59:30.838Z,8.87
2018-12-18T11:02:01.112Z,9.70
2018-12-18T11:04:29.366Z,8.23
2018-12-18T11:06:57.605Z,8.13
2018-12-18T11:09:25.786Z,7.93
2018-12-18T11:11:54.056Z,7.97
2018-12-18T11:14:22.338Z,7.13
2018-12-18T11:16:50.634Z,6.57
2018-12-18T11:19:18.810Z,7.30
2018-12-18T11:21:47.004Z,6.10
2018-12-18T11:24:15.168Z,7.20
2018-12-18T11:26:43.366Z,7.67
2018-12-18T11:29:11.570Z,8.90
2018-12-18T11:31:39.766Z,8.83
2018-12-18T11:34:08.124Z,10.93
2018-12-18T11:36:36.403Z,9.33
2018-12-18T11:39:07.005Z,8.73
2018-12-18T11:41:35.450Z,8.37
2018-12-18T11:44:03.823Z,7.23
2018-12-18T11:46:32.091Z,6.40
2018-12-18T11:49:00.255Z,6.67
2018-12-18T11:51:28.450Z,8.50
2018-12-18T11:53:56.618Z,5.97
2018-12-18T11:56:24.806Z,4.60
2018-12-18T11:58:52.971Z,4.27
2018-12-18T12:01:21.255Z,4.60
2018-12-18T12:03:49.437Z,4.00
2018-12-18T12:06:22.960Z,4.13
2018-12-18T12:08:47.820Z,4.20
2018-12-18T12:11:16.010Z,4.60
2018-12-18T12:13:44.194Z,4.20
2018-12-18T12:16:12.464Z,3.30
2018-12-18T12:18:40.625Z,2.20
2018-12-18T12:21:08.797Z,2.80
2018-12-18T12:23:36.961Z,2.30
2018-12-18T12:26:10.581Z,2.50
2018-12-18T12:28:38.801Z,2.00
2018-12-18T12:31:06.970Z,2.40
2018-12-18T12:33:35.130Z,2.43
2018-12-18T12:36:03.509Z,2.40
2018-12-18T12:38:31.678Z,2.80
2018-12-18T12:40:59.899Z,3.03
2018-12-18T12:43:28.107Z,3.20
2018-12-18T12:45:56.418Z,3.60
2018-12-18T12:48:28.861Z,3.87
2018-12-18T12:50:57.036Z,2.90
2018-12-18T12:53:25.261Z,3.27
2018-12-18T12:55:53.531Z,3.60
2018-12-18T12:58:21.727Z,4.57
2018-12-18T13:00:49.891Z,4.60
2018-12-18T13:03:18.156Z,5.07
2018-12-18T13:05:46.411Z,4.80
2018-12-18T13:08:14.697Z,5.13
2018-12-18T13:10:42.873Z,5.20
2018-12-18T13:13:11.054Z,4.70
2018-12-18T13:15:39.230Z,4.80
2018-12-18T13:18:07.439Z,5.03
2018-12-18T13:20:35.617Z,5.90
2018-12-18T13:23:03.895Z,6.33
2018-12-18T13:25:32.095Z,5.67
2018-12-18T13:28:00.295Z,5.90
2018-12-18T13:30:28.509Z,6.17
2018-12-18T13:32:56.710Z,6.80
2018-12-18T13:35:24.878Z,5.60
2018-12-18T13:37:53.059Z,7.23
2018-12-18T13:40:21.229Z,8.93
2018-12-18T13:42:49.462Z,4.83
2018-12-18T13:45:17.626Z,5.10
2018-12-18T13:47:45.829Z,4.47
2018-12-18T13:50:14.014Z,4.37
2018-12-18T13:52:42.354Z,3.73
2018-12-18T13:55:10.540Z,4.03
2018-12-18T13:57:38.754Z,4.20
2018-12-18T14:00:07.074Z,4.23
2018-12-18T14:02:35.249Z,3.77
2018-12-18T14:05:03.588Z,3.87
2018-12-18T14:07:31.793Z,4.23
2018-12-18T14:10:00.121Z,4.73
2018-12-18T14:12:28.304Z,4.67
2018-12-18T14:14:56.458Z,3.87
2018-12-18T14:17:24.672Z,4.40
2018-12-18T14:19:52.926Z,4.10
2018-12-18T14:22:21.113Z,4.03
2018-12-18T14:24:49.261Z,3.37
2018-12-18T14:27:17.424Z,4.23
2018-12-18T14:29:45.637Z,4.17
2018-12-18T14:32:13.805Z,4.20
2018-12-18T14:34:41.957Z,3.93
2018-12-18T14:37:10.140Z,5.00
2018-12-18T14:39:45.937Z,5.77
2018-12-18T14:42:14.139Z,4.87
2018-12-18T14:44:42.293Z,5.00
2018-12-18T14:47:10.470Z,5.43
2018-12-18T14:49:38.717Z,5.57
2018-12-18T14:52:06.891Z,5.83
2018-12-18T14:54:35.342Z,6.27
2018-12-18T14:57:03.602Z,6.17
2018-12-18T14:59:31.757Z,6.23
2018-12-18T15:01:59.939Z,6.87
2018-12-18T15:04:28.094Z,6.70
2018-12-18T15:07:02.634Z,6.27
2018-12-18T15:09:26.534Z,6.93
2018-12-18T15:11:54.741Z,7.00
2018-12-18T15:14:22.951Z,7.33
2018-12-18T15:16:51.093Z,7.13
2018-12-18T15:19:19.261Z,7.70
2018-12-18T15:21:47.426Z,7.67
2018-12-18T15:24:15.687Z,7.63
2018-12-18T15:26:43.838Z,8.50
2018-12-18T15:29:12.109Z,8.57
2018-12-18T15:31:40.259Z,9.43
2018-12-18T15:34:08.516Z,8.97
2018-12-18T15:36:36.751Z,7.80
2018-12-18T15:39:06.746Z,8.80
2018-12-18T15:41:35.762Z,9.37
2018-12-18T15:44:04.644Z,8.50
2018-12-18T15:46:32.801Z,9.40
2018-12-18T15:49:00.969Z,9.10
2018-12-18T15:51:29.125Z,10.67
2018-12-18T15:53:57.305Z,10.17
2018-12-18T15:56:25.461Z,10.17
2018-12-18T15:58:53.649Z,10.77
2018-12-18T16:01:21.809Z,10.37
2018-12-18T16:03:49.981Z,10.37
2018-12-18T16:06:18.358Z,10.10
2018-12-18T16:08:46.524Z,11.10
2018-12-18T16:11:14.681Z,9.97
2018-12-18T16:13:42.862Z,11.03
2018-12-18T16:16:11.096Z,10.30
2018-12-18T16:18:39.271Z,11.90
2018-12-18T16:21:07.685Z,11.50
2018-12-18T16:23:35.862Z,11.43
2018-12-18T16:26:04.113Z,11.17
2018-12-18T16:28:32.305Z,11.70
2018-12-18T16:31:00.566Z,11.93
2018-12-18T16:33:28.696Z,13.67
2018-12-18T16:35:56.820Z,12.70
2018-12-18T16:38:24.951Z,11.67
2018-12-18T16:40:53.171Z,12.43
2018-12-18T16:43:21.340Z,13.03
2018-12-18T16:45:49.760Z,12.73
2018-12-18T16:48:17.908Z,11.80
2018-12-18T16:50:46.065Z,11.67
2018-12-18T16:53:14.225Z,12.00
2018-12-18T16:55:42.456Z,12.33
2018-12-18T16:58:10.778Z,11.07
2018-12-18T17:00:38.904Z,10.97
2018-12-18T17:03:07.064Z,11.50
2018-12-18T17:05:35.190Z,11.33
2018-12-18T17:08:03.372Z,10.80
2018-12-18T17:10:31.568Z,10.37
2018-12-18T17:13:00.181Z,9.87
2018-12-18T17:15:28.308Z,10.27
2018-12-18T17:17:56.486Z,10.57
2018-12-18T17:20:24.726Z,11.43
2018-12-18T17:22:52.923Z,10.70
2018-12-18T17:25:21.298Z,11.60
2018-12-18T17:27:49.473Z,12.88
2018-12-18T17:30:17.649Z,12.83
2018-12-18T17:32:45.834Z,12.37
2018-12-18T17:35:14.353Z,11.80
2018-12-18T17:37:42.609Z,11.67
2018-12-18T17:40:10.855Z,10.50
2018-12-18T17:42:39.102Z,11.47
2018-12-18T17:45:07.993Z,11.87
2018-12-18T17:47:36.160Z,11.50
2018-12-18T17:50:05.705Z,11.73
2018-12-18T17:52:33.891Z,12.03
2018-12-18T17:55:02.070Z,10.83
2018-12-18T17:57:30.348Z,11.60
2018-12-18T17:59:58.559Z,10.20
2018-12-18T18:02:26.738Z,10.70
2018-12-18T18:04:54.963Z,11.27
2018-12-18T18:07:23.225Z,11.83
2018-12-18T18:09:51.576Z,12.27
2018-12-18T18:12:19.754Z,11.43
2018-12-18T18:14:47.939Z,12.53
2018-12-18T18:17:16.117Z,11.83
2018-12-18T18:19:44.340Z,12.17
2018-12-18T18:22:12.577Z,12.73
2018-12-18T18:24:40.751Z,12.50
2018-12-18T18:27:08.923Z,11.90
2018-12-18T18:29:37.337Z,11.10
2018-12-18T18:32:05.526Z,11.63
2018-12-18T18:34:33.714Z,12.40
2018-12-18T18:37:01.897Z,12.50
2018-12-18T18:39:30.094Z,13.13
2018-12-18T18:41:58.429Z,11.90
2018-12-18T18:44:26.626Z,12.20
2018-12-18T18:46:54.789Z,12.50
2018-12-18T18:49:23.055Z,12.03
2018-12-18T18:51:51.214Z,12.60
2018-12-18T18:54:19.655Z,13.90
2018-12-18T18:56:47.820Z,14.30
2018-12-18T18:59:16.018Z,12.80
2018-12-18T19:01:44.273Z,13.23
2018-12-18T19:04:12.484Z,14.43
2018-12-18T19:06:40.712Z,14.23
2018-12-18T19:09:09.039Z,13.87
2018-12-18T19:11:37.240Z,14.67
2018-12-18T19:14:05.591Z,12.63
2018-12-18T19:16:33.745Z,14.47
2018-12-18T19:19:01.951Z,13.17
2018-12-18T19:21:30.112Z,14.57
2018-12-18T19:23:58.302Z,14.00
2018-12-18T19:26:26.511Z,14.50
2018-12-18T19:28:54.721Z,13.20
2018-12-18T19:31:23.765Z,13.73
2018-12-18T19:33:51.968Z,21.73
2018-12-18T19:36:20.254Z,15.63
2018-12-18T19:38:48.435Z,14.50
2018-12-18T19:41:16.689Z,20.33
2018-12-18T19:43:45.955Z,22.43
2018-12-18T19:46:14.489Z,15.80
2018-12-18T19:48:42.857Z,21.13
2018-12-18T19:51:11.011Z,15.50
2018-12-18T19:53:39.173Z,15.93
2018-12-18T19:56:07.447Z,15.10
2018-12-18T19:58:35.696Z,15.63
2018-12-18T20:01:04.015Z,16.60
2018-12-18T20:03:32.553Z,14.23
2018-12-18T20:06:00.726Z,15.17
2018-12-18T20:08:28.906Z,15.90
2018-12-18T20:10:57.056Z,14.80
2018-12-18T20:13:25.237Z,15.37
2018-12-18T20:15:53.430Z,14.90
2018-12-18T20:18:21.614Z,15.13
2018-12-18T20:20:49.788Z,13.97
2018-12-18T20:23:17.961Z,14.70
2018-12-18T20:25:46.394Z,14.87
2018-12-18T20:28:14.565Z,15.13
2018-12-18T20:30:42.733Z,14.77
2018-12-18T20:33:10.913Z,14.13
2018-12-18T20:35:39.125Z,15.60
2018-12-18T20:38:07.438Z,14.00
2018-12-18T20:40:35.630Z,15.20
2018-12-18T20:43:03.917Z,14.97
2018-12-18T20:45:32.125Z,14.07
2018-12-18T20:48:00.326Z,14.83
2018-12-18T20:50:28.499Z,15.90
2018-12-18T20:52:56.661Z,16.40
2018-12-18T20:55:24.892Z,17.77
2018-12-18T20:57:53.078Z,19.27
2018-12-18T21:00:21.278Z,21.13
2018-12-18T21:02:49.460Z,18.97
2018-12-18T21:05:17.869Z,15.83
2018-12-18T21:07:46.644Z,16.67
2018-12-18T21:10:14.977Z,16.67
2018-12-18T21:12:43.275Z,15.73
2018-12-18T21:15:11.608Z,17.03
2018-12-18T21:17:39.970Z,15.83
2018-12-18T21:20:08.786Z,16.50
2018-12-18T21:22:37.099Z,16.20
2018-12-18T21:25:06.429Z,15.67
2018-12-18T21:27:34.726Z,14.67
2018-12-18T21:30:03.065Z,17.07
2018-12-18T21:32:31.393Z,15.37
2018-12-18T21:34:59.733Z,14.20
2018-12-18T21:37:28.175Z,15.90
2018-12-18T21:39:56.520Z,15.53
2018-12-18T21:42:24.904Z,15.03
2018-12-18T21:44:53.603Z,15.77
2018-12-18T21:47:21.922Z,15.37
2018-12-18T21:49:50.312Z,15.93
2018-12-18T21:52:18.661Z,14.87
2018-12-18T21:54:47.010Z,15.17
2018-12-18T21:57:15.415Z,14.70
2018-12-18T21:59:47.069Z,15.37
2018-12-18T22:02:15.405Z,14.70
2018-12-18T22:04:43.819Z,14.83
2018-12-18T22:07:12.228Z,15.23
2018-12-18T22:09:40.574Z,15.20
2018-12-18T22:12:08.994Z,14.37
2018-12-18T22:14:37.451Z,15.30
2018-12-18T22:17:05.850Z,15.03
2018-12-18T22:19:34.165Z,14.87
2018-12-18T22:22:02.574Z,15.43
2018-12-18T22:24:30.933Z,15.33
2018-12-18T22:26:59.161Z,16.17
2018-12-18T22:29:27.444Z,19.20
2018-12-18T22:31:55.638Z,17.83
2018-12-18T22:34:23.845Z,17.90
2018-12-18T22:36:52.134Z,16.20
2018-12-18T22:39:20.351Z,16.10
2018-12-18T22:41:48.569Z,16.60
2018-12-18T22:44:16.806Z,17.33
2018-12-18T22:46:44.992Z,16.37
2018-12-18T22:49:13.202Z,16.07
2018-12-18T22:51:41.417Z,14.90
2018-12-18T22:54:09.658Z,13.30
2018-12-18T22:56:37.910Z,12.43
2018-12-18T22:59:06.153Z,13.70
2018-12-18T23:01:38.247Z,14.60
2018-12-18T23:04:06.634Z,14.40
2018-12-18T23:06:34.834Z,14.00
2018-12-18T23:09:04.049Z,13.97
2018-12-18T23:11:32.275Z,13.23
2018-12-18T23:14:00.601Z,14.80
2018-12-18T23:16:28.946Z,14.60
2018-12-18T23:18:57.178Z,14.50
2018-12-18T23:21:25.391Z,13.43
2018-12-18T23:23:53.626Z,13.33
2018-12-18T23:26:21.850Z,13.80
2018-12-18T23:28:50.148Z,14.50
2018-12-18T23:31:18.602Z,14.77
2018-12-18T23:33:47.150Z,14.87
2018-12-18T23:36:15.346Z,14.00
2018-12-18T23:38:43.575Z,13.20
2018-12-18T23:41:11.759Z,12.47
2018-12-18T23:43:39.969Z,14.63
2018-12-18T23:46:08.173Z,14.70
2018-12-18T23:48:39.716Z,14.67
2018-12-18T23:51:06.815Z,15.30
2018-12-18T23:53:35.428Z,15.37
2018-12-18T23:56:03.697Z,13.70
2018-12-18T23:58:31.922Z,13.37
